sensor_id;sensor_type;location;lat;lon;timestamp;temperature;humidity
37268;DHT22;23154;52.542;13.362;2023-02-13T00:01:01;7.70;99.90
37268;DHT22;23154;52.542;13.362;2023-02-13T00:03:28;7.70;99.90
37268;DHT22;23154;52.542;13.362;2023-02-13T00:05:53;7.70;99.90
37268;DHT22;23154;52.542;13.362;2023-02-13T00:08:19;7.70;99.90
37268;DHT22;23154;52.542;13.362;2023-02-13T00:10:45;7.60;99.90
37268;DHT22;23154;52.542;13.362;2023-02-13T00:13:11;7.60;99.90
37268;DHT22;23154;52.542;13.362;2023-02-13T00:15:36;7.60;99.90
37268;DHT22;23154;52.542;13.362;2023-02-13T00:18:02;7.50;99.90
37268;DHT22;23154;52.542;13.362;2023-02-13T00:20:28;7.40;99.90
37268;DHT22;23154;52.542;13.362;2023-02-13T00:22:53;7.50;99.90
37268;DHT22;23154;52.542;13.362;2023-02-13T00:25:19;7.50;99.90
37268;DHT22;23154;52.542;13.362;2023-02-13T00:27:44;7.50;99.90
37268;DHT22;23154;52.542;13.362;2023-02-13T00:30:10;7.50;99.90
37268;DHT22;23154;52.542;13.362;2023-02-13T00:32:36;7.40;99.90
37268;DHT22;23154;52.542;13.362;2023-02-13T00:35:01;7.50;99.90
37268;DHT22;23154;52.542;13.362;2023-02-13T00:37:28;7.50;99.90
37268;DHT22;23154;52.542;13.362;2023-02-13T00:39:53;7.50;99.90
37268;DHT22;23154;52.542;13.362;2023-02-13T00:42:20;7.50;99.90
37268;DHT22;23154;52.542;13.362;2023-02-13T00:44:48;7.50;99.90
37268;DHT22;23154;52.542;13.362;2023-02-13T00:47:13;7.50;99.90
37268;DHT22;23154;52.542;13.362;2023-02-13T00:49:39;7.50;99.90
37268;DHT22;23154;52.542;13.362;2023-02-13T00:52:05;7.40;99.90
37268;DHT22;23154;52.542;13.362;2023-02-13T00:54:31;7.40;99.90
37268;DHT22;23154;52.542;13.362;2023-02-13T00:56:56;7.40;99.90
37268;DHT22;23154;52.542;13.362;2023-02-13T00:59:22;7.40;99.90
37268;DHT22;23154;52.542;13.362;2023-02-13T01:01:47;7.40;99.90
37268;DHT22;23154;52.542;13.362;2023-02-13T01:04:13;7.40;99.90
37268;DHT22;23154;52.542;13.362;2023-02-13T01:06:38;7.40;99.90
37268;DHT22;23154;52.542;13.362;2023-02-13T01:09:04;7.50;99.90
37268;DHT22;23154;52.542;13.362;2023-02-13T01:11:29;7.50;99.90
37268;DHT22;23154;52.542;13.362;2023-02-13T01:13:55;7.40;99.90
37268;DHT22;23154;52.542;13.362;2023-02-13T01:16:20;7.40;99.90
37268;DHT22;23154;52.542;13.362;2023-02-13T01:18:46;7.40;99.90
37268;DHT22;23154;52.542;13.362;2023-02-13T01:21:14;7.40;99.90
37268;DHT22;23154;52.542;13.362;2023-02-13T01:23:40;7.30;99.90
37268;DHT22;23154;52.542;13.362;2023-02-13T01:26:06;7.30;99.90
37268;DHT22;23154;52.542;13.362;2023-02-13T01:28:33;7.30;99.90
37268;DHT22;23154;52.542;13.362;2023-02-13T01:30:59;7.30;99.90
37268;DHT22;23154;52.542;13.362;2023-02-13T01:33:25;7.30;99.90
37268;DHT22;23154;52.542;13.362;2023-02-13T01:35:51;7.20;99.90
37268;DHT22;23154;52.542;13.362;2023-02-13T01:38:17;7.30;99.90
37268;DHT22;23154;52.542;13.362;2023-02-13T01:40:46;7.20;99.90
37268;DHT22;23154;52.542;13.362;2023-02-13T01:43:12;7.20;99.90
37268;DHT22;23154;52.542;13.362;2023-02-13T01:45:37;7.20;99.90
37268;DHT22;23154;52.542;13.362;2023-02-13T01:48:07;7.20;99.90
37268;DHT22;23154;52.542;13.362;2023-02-13T01:50:36;7.10;99.90
37268;DHT22;23154;52.542;13.362;2023-02-13T01:53:09;7.10;99.90
37268;DHT22;23154;52.542;13.362;2023-02-13T01:55:40;7.20;99.90
37268;DHT22;23154;52.542;13.362;2023-02-13T01:58:08;7.20;99.90
37268;DHT22;23154;52.542;13.362;2023-02-13T02:00:35;7.10;99.90
37268;DHT22;23154;52.542;13.362;2023-02-13T02:03:05;7.10;99.90
37268;DHT22;23154;52.542;13.362;2023-02-13T02:05:31;7.00;99.90
37268;DHT22;23154;52.542;13.362;2023-02-13T02:07:59;7.00;99.90
37268;DHT22;23154;52.542;13.362;2023-02-13T02:10:26;7.10;99.90
37268;DHT22;23154;52.542;13.362;2023-02-13T02:12:54;7.10;99.90
37268;DHT22;23154;52.542;13.362;2023-02-13T02:15:22;7.00;99.90
37268;DHT22;23154;52.542;13.362;2023-02-13T02:17:48;7.00;99.90
37268;DHT22;23154;52.542;13.362;2023-02-13T02:27:56;7.00;99.90
37268;DHT22;23154;52.542;13.362;2023-02-13T02:38:53;7.00;99.90
37268;DHT22;23154;52.542;13.362;2023-02-13T02:41:23;6.90;99.90
37268;DHT22;23154;52.542;13.362;2023-02-13T02:44:23;6.80;99.90
37268;DHT22;23154;52.542;13.362;2023-02-13T02:49:37;6.90;99.90
37268;DHT22;23154;52.542;13.362;2023-02-13T02:52:32;6.80;99.90
37268;DHT22;23154;52.542;13.362;2023-02-13T02:55:09;6.80;99.90
37268;DHT22;23154;52.542;13.362;2023-02-13T02:57:41;6.80;99.90
37268;DHT22;23154;52.542;13.362;2023-02-13T03:00:27;6.80;99.90
37268;DHT22;23154;52.542;13.362;2023-02-13T03:03:17;6.80;99.90
37268;DHT22;23154;52.542;13.362;2023-02-13T03:06:03;6.80;99.90
37268;DHT22;23154;52.542;13.362;2023-02-13T03:08:41;6.70;99.90
37268;DHT22;23154;52.542;13.362;2023-02-13T03:11:26;6.70;99.90
37268;DHT22;23154;52.542;13.362;2023-02-13T03:14:12;6.80;99.90
37268;DHT22;23154;52.542;13.362;2023-02-13T03:16:39;6.80;99.90
37268;DHT22;23154;52.542;13.362;2023-02-13T03:19:27;6.80;99.90
37268;DHT22;23154;52.542;13.362;2023-02-13T03:22:24;6.80;99.90
37268;DHT22;23154;52.542;13.362;2023-02-13T03:24:56;6.80;99.90
37268;DHT22;23154;52.542;13.362;2023-02-13T03:35:36;6.70;99.90
37268;DHT22;23154;52.542;13.362;2023-02-13T03:38:29;6.70;99.90
37268;DHT22;23154;52.542;13.362;2023-02-13T03:40:59;6.70;99.90
37268;DHT22;23154;52.542;13.362;2023-02-13T03:43:55;6.70;99.90
37268;DHT22;23154;52.542;13.362;2023-02-13T03:46:23;6.70;99.90
37268;DHT22;23154;52.542;13.362;2023-02-13T03:48:49;6.70;99.90
37268;DHT22;23154;52.542;13.362;2023-02-13T03:52:16;6.80;99.90
37268;DHT22;23154;52.542;13.362;2023-02-13T03:57:07;6.80;99.90
37268;DHT22;23154;52.542;13.362;2023-02-13T03:59:51;6.70;99.90
37268;DHT22;23154;52.542;13.362;2023-02-13T04:02:18;6.70;99.90
37268;DHT22;23154;52.542;13.362;2023-02-13T04:04:47;6.60;99.90
37268;DHT22;23154;52.542;13.362;2023-02-13T04:07:15;6.70;99.90
37268;DHT22;23154;52.542;13.362;2023-02-13T04:09:57;6.70;99.90
37268;DHT22;23154;52.542;13.362;2023-02-13T04:14:57;6.70;99.90
37268;DHT22;23154;52.542;13.362;2023-02-13T04:17:26;6.60;99.90
37268;DHT22;23154;52.542;13.362;2023-02-13T04:19:54;6.60;99.90
37268;DHT22;23154;52.542;13.362;2023-02-13T04:22:20;6.60;99.90
37268;DHT22;23154;52.542;13.362;2023-02-13T04:24:45;6.60;99.90
37268;DHT22;23154;52.542;13.362;2023-02-13T04:27:14;6.60;99.90
37268;DHT22;23154;52.542;13.362;2023-02-13T04:29:40;6.70;99.90
37268;DHT22;23154;52.542;13.362;2023-02-13T04:32:06;6.60;99.90
37268;DHT22;23154;52.542;13.362;2023-02-13T04:34:31;6.60;99.90
37268;DHT22;23154;52.542;13.362;2023-02-13T04:36:57;6.60;99.90
37268;DHT22;23154;52.542;13.362;2023-02-13T04:39:22;6.60;99.90
37268;DHT22;23154;52.542;13.362;2023-02-13T04:41:48;6.60;99.90
37268;DHT22;23154;52.542;13.362;2023-02-13T04:44:14;6.60;99.90
37268;DHT22;23154;52.542;13.362;2023-02-13T04:46:39;6.60;99.90
37268;DHT22;23154;52.542;13.362;2023-02-13T04:49:05;6.60;99.90
37268;DHT22;23154;52.542;13.362;2023-02-13T04:51:30;6.70;99.90
37268;DHT22;23154;52.542;13.362;2023-02-13T04:53:56;6.70;99.90
37268;DHT22;23154;52.542;13.362;2023-02-13T04:56:21;6.80;99.90
37268;DHT22;23154;52.542;13.362;2023-02-13T04:58:47;6.80;99.90
37268;DHT22;23154;52.542;13.362;2023-02-13T05:01:13;6.80;99.90
37268;DHT22;23154;52.542;13.362;2023-02-13T05:03:39;6.80;99.90
37268;DHT22;23154;52.542;13.362;2023-02-13T05:06:05;6.70;99.90
37268;DHT22;23154;52.542;13.362;2023-02-13T05:08:31;6.70;99.90
37268;DHT22;23154;52.542;13.362;2023-02-13T05:10:57;6.70;99.90
37268;DHT22;23154;52.542;13.362;2023-02-13T05:13:23;6.70;99.90
37268;DHT22;23154;52.542;13.362;2023-02-13T05:15:49;6.70;99.90
37268;DHT22;23154;52.542;13.362;2023-02-13T05:18:17;6.80;99.90
37268;DHT22;23154;52.542;13.362;2023-02-13T05:20:42;6.80;99.90
37268;DHT22;23154;52.542;13.362;2023-02-13T05:23:10;6.80;99.90
37268;DHT22;23154;52.542;13.362;2023-02-13T05:25:49;6.80;99.90
37268;DHT22;23154;52.542;13.362;2023-02-13T05:28:15;6.70;99.90
37268;DHT22;23154;52.542;13.362;2023-02-13T05:30:59;6.60;99.90
37268;DHT22;23154;52.542;13.362;2023-02-13T05:33:25;6.60;99.90
37268;DHT22;23154;52.542;13.362;2023-02-13T05:35:50;6.70;99.90
37268;DHT22;23154;52.542;13.362;2023-02-13T05:38:16;6.70;99.90
37268;DHT22;23154;52.542;13.362;2023-02-13T05:40:42;6.60;99.90
37268;DHT22;23154;52.542;13.362;2023-02-13T05:43:07;6.60;99.90
37268;DHT22;23154;52.542;13.362;2023-02-13T05:45:33;6.60;99.90
37268;DHT22;23154;52.542;13.362;2023-02-13T05:47:58;6.60;99.90
37268;DHT22;23154;52.542;13.362;2023-02-13T05:50:23;6.60;99.90
37268;DHT22;23154;52.542;13.362;2023-02-13T05:52:49;6.60;99.90
37268;DHT22;23154;52.542;13.362;2023-02-13T05:55:14;6.60;99.90
37268;DHT22;23154;52.542;13.362;2023-02-13T05:57:40;6.60;99.90
37268;DHT22;23154;52.542;13.362;2023-02-13T06:00:06;6.50;99.90
37268;DHT22;23154;52.542;13.362;2023-02-13T06:02:31;6.60;99.90
37268;DHT22;23154;52.542;13.362;2023-02-13T06:04:57;6.60;99.90
37268;DHT22;23154;52.542;13.362;2023-02-13T06:07:22;6.70;99.90
37268;DHT22;23154;52.542;13.362;2023-02-13T06:09:48;6.60;99.90
37268;DHT22;23154;52.542;13.362;2023-02-13T06:12:13;6.70;99.90
37268;DHT22;23154;52.542;13.362;2023-02-13T06:14:39;6.80;99.90
37268;DHT22;23154;52.542;13.362;2023-02-13T06:17:04;6.80;99.90
37268;DHT22;23154;52.542;13.362;2023-02-13T06:19:30;6.80;99.90
37268;DHT22;23154;52.542;13.362;2023-02-13T06:21:55;6.70;99.90
37268;DHT22;23154;52.542;13.362;2023-02-13T06:24:21;6.70;99.90
37268;DHT22;23154;52.542;13.362;2023-02-13T06:26:46;6.70;99.90
37268;DHT22;23154;52.542;13.362;2023-02-13T06:29:12;6.70;99.90
37268;DHT22;23154;52.542;13.362;2023-02-13T06:31:37;6.70;99.90
37268;DHT22;23154;52.542;13.362;2023-02-13T06:34:03;6.70;99.90
37268;DHT22;23154;52.542;13.362;2023-02-13T06:36:28;6.70;99.90
37268;DHT22;23154;52.542;13.362;2023-02-13T06:38:54;6.80;99.90
37268;DHT22;23154;52.542;13.362;2023-02-13T06:41:19;6.80;99.90
37268;DHT22;23154;52.542;13.362;2023-02-13T06:43:45;6.80;99.90
37268;DHT22;23154;52.542;13.362;2023-02-13T06:46:10;6.80;99.90
37268;DHT22;23154;52.542;13.362;2023-02-13T06:48:36;6.80;99.90
37268;DHT22;23154;52.542;13.362;2023-02-13T06:51:01;6.80;99.90
37268;DHT22;23154;52.542;13.362;2023-02-13T06:53:27;6.80;99.90
37268;DHT22;23154;52.542;13.362;2023-02-13T06:55:53;6.80;99.90
37268;DHT22;23154;52.542;13.362;2023-02-13T06:58:19;6.80;99.90
37268;DHT22;23154;52.542;13.362;2023-02-13T07:00:45;6.80;99.90
37268;DHT22;23154;52.542;13.362;2023-02-13T07:03:10;6.80;99.90
37268;DHT22;23154;52.542;13.362;2023-02-13T07:05:39;6.80;99.90
37268;DHT22;23154;52.542;13.362;2023-02-13T07:08:06;6.80;99.90
37268;DHT22;23154;52.542;13.362;2023-02-13T07:10:31;6.80;99.90
37268;DHT22;23154;52.542;13.362;2023-02-13T07:12:57;6.90;99.90
37268;DHT22;23154;52.542;13.362;2023-02-13T07:15:22;6.90;99.90
37268;DHT22;23154;52.542;13.362;2023-02-13T07:17:54;6.80;99.90
37268;DHT22;23154;52.542;13.362;2023-02-13T07:20:19;6.80;99.90
37268;DHT22;23154;52.542;13.362;2023-02-13T07:22:45;6.90;99.90
37268;DHT22;23154;52.542;13.362;2023-02-13T07:25:10;6.80;99.90
37268;DHT22;23154;52.542;13.362;2023-02-13T07:27:36;6.90;99.90
37268;DHT22;23154;52.542;13.362;2023-02-13T07:30:01;6.90;99.90
37268;DHT22;23154;52.542;13.362;2023-02-13T07:32:27;6.90;99.90
37268;DHT22;23154;52.542;13.362;2023-02-13T07:34:52;7.00;99.90
37268;DHT22;23154;52.542;13.362;2023-02-13T07:37:18;7.00;99.90
37268;DHT22;23154;52.542;13.362;2023-02-13T07:39:43;7.00;99.90
37268;DHT22;23154;52.542;13.362;2023-02-13T07:42:09;7.00;99.90
37268;DHT22;23154;52.542;13.362;2023-02-13T07:44:34;7.10;99.90
37268;DHT22;23154;52.542;13.362;2023-02-13T07:47:00;7.00;99.90
37268;DHT22;23154;52.542;13.362;2023-02-13T07:49:25;7.10;99.90
37268;DHT22;23154;52.542;13.362;2023-02-13T07:51:51;7.10;99.90
37268;DHT22;23154;52.542;13.362;2023-02-13T07:54:16;7.10;99.90
37268;DHT22;23154;52.542;13.362;2023-02-13T07:56:42;7.10;99.90
37268;DHT22;23154;52.542;13.362;2023-02-13T07:59:07;7.20;99.90
37268;DHT22;23154;52.542;13.362;2023-02-13T08:01:34;7.20;99.90
37268;DHT22;23154;52.542;13.362;2023-02-13T08:04:00;7.20;99.90
37268;DHT22;23154;52.542;13.362;2023-02-13T08:06:25;7.20;99.90
37268;DHT22;23154;52.542;13.362;2023-02-13T08:08:51;7.20;99.90
37268;DHT22;23154;52.542;13.362;2023-02-13T08:11:36;7.20;99.90
37268;DHT22;23154;52.542;13.362;2023-02-13T08:14:23;7.20;99.90
37268;DHT22;23154;52.542;13.362;2023-02-13T08:16:49;7.20;99.90
37268;DHT22;23154;52.542;13.362;2023-02-13T08:19:15;7.20;99.90
37268;DHT22;23154;52.542;13.362;2023-02-13T08:21:40;7.20;99.90
37268;DHT22;23154;52.542;13.362;2023-02-13T08:24:06;7.30;99.90
37268;DHT22;23154;52.542;13.362;2023-02-13T08:26:32;7.30;99.90
37268;DHT22;23154;52.542;13.362;2023-02-13T08:28:57;7.30;99.90
37268;DHT22;23154;52.542;13.362;2023-02-13T08:31:23;7.30;99.90
37268;DHT22;23154;52.542;13.362;2023-02-13T08:33:49;7.40;99.90
37268;DHT22;23154;52.542;13.362;2023-02-13T08:36:14;7.40;99.90
37268;DHT22;23154;52.542;13.362;2023-02-13T08:38:40;7.40;99.90
37268;DHT22;23154;52.542;13.362;2023-02-13T08:41:05;7.40;99.90
37268;DHT22;23154;52.542;13.362;2023-02-13T08:43:31;7.50;99.90
37268;DHT22;23154;52.542;13.362;2023-02-13T08:45:57;7.50;99.90
37268;DHT22;23154;52.542;13.362;2023-02-13T08:48:23;7.40;99.90
37268;DHT22;23154;52.542;13.362;2023-02-13T08:50:48;7.40;99.90
37268;DHT22;23154;52.542;13.362;2023-02-13T08:53:14;7.40;99.90
37268;DHT22;23154;52.542;13.362;2023-02-13T08:55:39;7.40;99.90
37268;DHT22;23154;52.542;13.362;2023-02-13T08:58:05;7.40;99.90
37268;DHT22;23154;52.542;13.362;2023-02-13T09:00:30;7.40;99.90
37268;DHT22;23154;52.542;13.362;2023-02-13T09:03:02;7.40;99.90
37268;DHT22;23154;52.542;13.362;2023-02-13T09:05:28;7.40;99.90
37268;DHT22;23154;52.542;13.362;2023-02-13T09:07:55;7.40;99.90
37268;DHT22;23154;52.542;13.362;2023-02-13T09:10:23;7.40;99.90
37268;DHT22;23154;52.542;13.362;2023-02-13T09:12:51;7.40;99.90
37268;DHT22;23154;52.542;13.362;2023-02-13T09:15:17;7.40;99.90
37268;DHT22;23154;52.542;13.362;2023-02-13T09:17:42;7.40;99.90
37268;DHT22;23154;52.542;13.362;2023-02-13T09:20:08;7.40;99.90
37268;DHT22;23154;52.542;13.362;2023-02-13T09:22:33;7.40;99.90
37268;DHT22;23154;52.542;13.362;2023-02-13T09:24:59;7.40;99.90
37268;DHT22;23154;52.542;13.362;2023-02-13T09:27:28;7.40;99.90
37268;DHT22;23154;52.542;13.362;2023-02-13T09:29:54;7.30;99.90
37268;DHT22;23154;52.542;13.362;2023-02-13T09:32:20;7.20;99.90
37268;DHT22;23154;52.542;13.362;2023-02-13T09:34:45;7.30;99.90
37268;DHT22;23154;52.542;13.362;2023-02-13T09:37:11;7.20;99.90
37268;DHT22;23154;52.542;13.362;2023-02-13T09:39:37;7.20;99.90
37268;DHT22;23154;52.542;13.362;2023-02-13T09:42:02;7.20;99.90
37268;DHT22;23154;52.542;13.362;2023-02-13T09:44:38;7.10;99.90
37268;DHT22;23154;52.542;13.362;2023-02-13T09:49:40;7.20;99.90
37268;DHT22;23154;52.542;13.362;2023-02-13T09:52:06;7.20;99.90
37268;DHT22;23154;52.542;13.362;2023-02-13T09:54:32;7.10;99.90
37268;DHT22;23154;52.542;13.362;2023-02-13T09:57:07;7.00;99.90
37268;DHT22;23154;52.542;13.362;2023-02-13T09:59:53;7.10;99.90
37268;DHT22;23154;52.542;13.362;2023-02-13T10:04:48;7.10;99.90
37268;DHT22;23154;52.542;13.362;2023-02-13T10:07:20;7.20;99.90
37268;DHT22;23154;52.542;13.362;2023-02-13T10:10:02;7.20;99.90
37268;DHT22;23154;52.542;13.362;2023-02-13T10:18:26;7.60;99.90
37268;DHT22;23154;52.542;13.362;2023-02-13T10:20:36;7.40;99.90
37268;DHT22;23154;52.542;13.362;2023-02-13T10:25:50;7.30;99.90
37268;DHT22;23154;52.542;13.362;2023-02-13T10:30:55;7.40;99.90
37268;DHT22;23154;52.542;13.362;2023-02-13T10:33:24;7.40;99.90
37268;DHT22;23154;52.542;13.362;2023-02-13T10:35:55;7.50;99.90
37268;DHT22;23154;52.542;13.362;2023-02-13T10:38:23;7.50;99.90
37268;DHT22;23154;52.542;13.362;2023-02-13T10:43:45;7.50;99.90
37268;DHT22;23154;52.542;13.362;2023-02-13T10:46:16;7.50;99.90
37268;DHT22;23154;52.542;13.362;2023-02-13T10:48:53;7.70;99.90
37268;DHT22;23154;52.542;13.362;2023-02-13T10:58:47;8.00;99.90
37268;DHT22;23154;52.542;13.362;2023-02-13T11:01:18;8.00;99.90
37268;DHT22;23154;52.542;13.362;2023-02-13T11:03:47;7.90;99.90
37268;DHT22;23154;52.542;13.362;2023-02-13T11:06:14;7.80;99.90
37268;DHT22;23154;52.542;13.362;2023-02-13T11:08:43;7.70;99.90
37268;DHT22;23154;52.542;13.362;2023-02-13T11:19:17;7.90;99.90
37268;DHT22;23154;52.542;13.362;2023-02-13T11:21:43;7.90;99.90
37268;DHT22;23154;52.542;13.362;2023-02-13T11:24:17;8.00;99.90
37268;DHT22;23154;52.542;13.362;2023-02-13T11:26:43;8.00;99.90
37268;DHT22;23154;52.542;13.362;2023-02-13T11:29:21;8.00;99.90
37268;DHT22;23154;52.542;13.362;2023-02-13T11:31:47;8.00;99.90
37268;DHT22;23154;52.542;13.362;2023-02-13T11:34:25;8.00;99.90
37268;DHT22;23154;52.542;13.362;2023-02-13T11:36:51;8.00;99.90
37268;DHT22;23154;52.542;13.362;2023-02-13T11:39:18;8.10;99.90
37268;DHT22;23154;52.542;13.362;2023-02-13T11:41:45;8.20;99.90
37268;DHT22;23154;52.542;13.362;2023-02-13T11:44:24;8.10;99.90
37268;DHT22;23154;52.542;13.362;2023-02-13T11:46:51;8.20;99.90
37268;DHT22;23154;52.542;13.362;2023-02-13T11:49:29;8.20;99.90
37268;DHT22;23154;52.542;13.362;2023-02-13T11:51:59;8.10;99.90
37268;DHT22;23154;52.542;13.362;2023-02-13T11:56:54;8.20;99.90
37268;DHT22;23154;52.542;13.362;2023-02-13T11:59:24;8.20;99.90
37268;DHT22;23154;52.542;13.362;2023-02-13T12:02:07;8.20;99.90
37268;DHT22;23154;52.542;13.362;2023-02-13T12:04:36;8.20;99.90
37268;DHT22;23154;52.542;13.362;2023-02-13T12:07:03;8.30;99.90
37268;DHT22;23154;52.542;13.362;2023-02-13T12:09:36;8.20;99.90
37268;DHT22;23154;52.542;13.362;2023-02-13T12:12:03;8.20;99.90
37268;DHT22;23154;52.542;13.362;2023-02-13T12:14:30;8.20;99.90
37268;DHT22;23154;52.542;13.362;2023-02-13T12:17:07;8.20;99.90
37268;DHT22;23154;52.542;13.362;2023-02-13T12:19:43;8.30;99.90
37268;DHT22;23154;52.542;13.362;2023-02-13T12:22:46;8.30;99.90
37268;DHT22;23154;52.542;13.362;2023-02-13T12:25:12;8.30;99.90
37268;DHT22;23154;52.542;13.362;2023-02-13T12:42:52;8.40;99.90
37268;DHT22;23154;52.542;13.362;2023-02-13T12:48:03;8.30;99.90
37268;DHT22;23154;52.542;13.362;2023-02-13T12:50:35;8.20;99.90
37268;DHT22;23154;52.542;13.362;2023-02-13T12:55:44;8.00;99.90
37268;DHT22;23154;52.542;13.362;2023-02-13T13:01:04;8.00;99.90
37268;DHT22;23154;52.542;13.362;2023-02-13T13:03:44;8.00;99.90
37268;DHT22;23154;52.542;13.362;2023-02-13T13:09:44;8.10;99.90
37268;DHT22;23154;52.542;13.362;2023-02-13T13:16:52;8.20;99.90
37268;DHT22;23154;52.542;13.362;2023-02-13T13:24:46;8.10;99.90
37268;DHT22;23154;52.542;13.362;2023-02-13T13:27:17;8.10;99.90
37268;DHT22;23154;52.542;13.362;2023-02-13T13:29:50;8.20;99.90
37268;DHT22;23154;52.542;13.362;2023-02-13T13:32:18;8.20;99.90
37268;DHT22;23154;52.542;13.362;2023-02-13T13:34:45;8.00;99.90
37268;DHT22;23154;52.542;13.362;2023-02-13T13:37:31;8.10;99.90
37268;DHT22;23154;52.542;13.362;2023-02-13T13:42:26;8.10;99.90
37268;DHT22;23154;52.542;13.362;2023-02-13T13:50:03;8.20;99.90
37268;DHT22;23154;52.542;13.362;2023-02-13T13:52:31;8.10;99.90
37268;DHT22;23154;52.542;13.362;2023-02-13T13:55:02;8.20;99.90
37268;DHT22;23154;52.542;13.362;2023-02-13T14:02:48;7.90;99.90
37268;DHT22;23154;52.542;13.362;2023-02-13T14:05:19;7.90;99.90
37268;DHT22;23154;52.542;13.362;2023-02-13T14:07:46;7.90;99.90
37268;DHT22;23154;52.542;13.362;2023-02-13T14:12:46;7.90;99.90
37268;DHT22;23154;52.542;13.362;2023-02-13T14:17:56;8.00;99.90
37268;DHT22;23154;52.542;13.362;2023-02-13T14:25:32;8.00;99.90
37268;DHT22;23154;52.542;13.362;2023-02-13T14:28:02;8.00;99.90
37268;DHT22;23154;52.542;13.362;2023-02-13T14:32:53;7.90;99.90
37268;DHT22;23154;52.542;13.362;2023-02-13T14:35:22;7.80;99.90
37268;DHT22;23154;52.542;13.362;2023-02-13T14:37:58;7.80;99.90
37268;DHT22;23154;52.542;13.362;2023-02-13T14:40:29;7.70;99.90
37268;DHT22;23154;52.542;13.362;2023-02-13T14:42:56;7.80;99.90
37268;DHT22;23154;52.542;13.362;2023-02-13T14:45:30;7.80;99.90
37268;DHT22;23154;52.542;13.362;2023-02-13T14:47:57;7.70;99.90
37268;DHT22;23154;52.542;13.362;2023-02-13T14:50:27;7.80;99.90
37268;DHT22;23154;52.542;13.362;2023-02-13T14:52:54;7.70;99.90
37268;DHT22;23154;52.542;13.362;2023-02-13T14:57:56;7.60;99.90
37268;DHT22;23154;52.542;13.362;2023-02-13T15:00:26;7.60;99.90
37268;DHT22;23154;52.542;13.362;2023-02-13T15:03:01;7.70;99.90
37268;DHT22;23154;52.542;13.362;2023-02-13T15:05:32;7.70;99.90
37268;DHT22;23154;52.542;13.362;2023-02-13T15:08:11;7.70;99.90
37268;DHT22;23154;52.542;13.362;2023-02-13T15:10:42;7.60;99.90
37268;DHT22;23154;52.542;13.362;2023-02-13T15:13:42;7.50;99.90
37268;DHT22;23154;52.542;13.362;2023-02-13T15:16:06;7.50;99.90
37268;DHT22;23154;52.542;13.362;2023-02-13T15:21:10;7.50;99.90
37268;DHT22;23154;52.542;13.362;2023-02-13T15:23:37;7.50;99.90
37268;DHT22;23154;52.542;13.362;2023-02-13T15:26:04;7.60;99.90
37268;DHT22;23154;52.542;13.362;2023-02-13T15:28:30;7.40;99.90
37268;DHT22;23154;52.542;13.362;2023-02-13T15:31:00;7.40;99.90
37268;DHT22;23154;52.542;13.362;2023-02-13T15:33:27;7.40;99.90
37268;DHT22;23154;52.542;13.362;2023-02-13T15:35:58;7.40;99.90
37268;DHT22;23154;52.542;13.362;2023-02-13T15:38:25;7.30;99.90
37268;DHT22;23154;52.542;13.362;2023-02-13T15:40:52;7.30;99.90
37268;DHT22;23154;52.542;13.362;2023-02-13T15:43:31;7.40;99.90
37268;DHT22;23154;52.542;13.362;2023-02-13T15:45:58;7.40;99.90
37268;DHT22;23154;52.542;13.362;2023-02-13T15:48:24;7.30;99.90
37268;DHT22;23154;52.542;13.362;2023-02-13T15:50:50;7.40;99.90
37268;DHT22;23154;52.542;13.362;2023-02-13T15:53:15;7.20;99.90
37268;DHT22;23154;52.542;13.362;2023-02-13T15:55:53;7.30;99.90
37268;DHT22;23154;52.542;13.362;2023-02-13T15:58:26;7.30;99.90
37268;DHT22;23154;52.542;13.362;2023-02-13T16:00:52;7.20;99.90
37268;DHT22;23154;52.542;13.362;2023-02-13T16:03:18;7.20;99.90
37268;DHT22;23154;52.542;13.362;2023-02-13T16:05:44;7.20;99.90
37268;DHT22;23154;52.542;13.362;2023-02-13T16:08:27;7.10;99.90
37268;DHT22;23154;52.542;13.362;2023-02-13T16:13:37;7.20;99.90
37268;DHT22;23154;52.542;13.362;2023-02-13T16:16:07;7.10;99.90
37268;DHT22;23154;52.542;13.362;2023-02-13T16:18:33;7.10;99.90
37268;DHT22;23154;52.542;13.362;2023-02-13T16:20:59;7.20;99.90
37268;DHT22;23154;52.542;13.362;2023-02-13T16:23:25;7.20;99.90
37268;DHT22;23154;52.542;13.362;2023-02-13T16:25:51;7.10;99.90
37268;DHT22;23154;52.542;13.362;2023-02-13T16:28:18;7.10;99.90
37268;DHT22;23154;52.542;13.362;2023-02-13T16:30:46;7.10;99.90
37268;DHT22;23154;52.542;13.362;2023-02-13T16:35:50;7.10;99.90
37268;DHT22;23154;52.542;13.362;2023-02-13T16:38:33;7.10;99.90
37268;DHT22;23154;52.542;13.362;2023-02-13T16:41:01;7.10;99.90
37268;DHT22;23154;52.542;13.362;2023-02-13T16:46:59;7.00;99.90
37268;DHT22;23154;52.542;13.362;2023-02-13T16:56:41;7.00;99.90
37268;DHT22;23154;52.542;13.362;2023-02-13T17:01:42;7.00;99.90
37268;DHT22;23154;52.542;13.362;2023-02-13T17:04:41;7.00;99.90
37268;DHT22;23154;52.542;13.362;2023-02-13T17:07:03;7.00;99.90
37268;DHT22;23154;52.542;13.362;2023-02-13T17:09:29;7.00;99.90
37268;DHT22;23154;52.542;13.362;2023-02-13T17:11:55;6.90;99.90
37268;DHT22;23154;52.542;13.362;2023-02-13T17:14:22;7.00;99.90
37268;DHT22;23154;52.542;13.362;2023-02-13T17:16:48;6.90;99.90
37268;DHT22;23154;52.542;13.362;2023-02-13T17:19:13;6.90;99.90
37268;DHT22;23154;52.542;13.362;2023-02-13T17:21:39;7.00;99.90
37268;DHT22;23154;52.542;13.362;2023-02-13T17:24:05;7.00;99.90
37268;DHT22;23154;52.542;13.362;2023-02-13T17:26:32;7.00;99.90
37268;DHT22;23154;52.542;13.362;2023-02-13T17:28:58;7.00;99.90
37268;DHT22;23154;52.542;13.362;2023-02-13T17:31:23;7.00;99.90
37268;DHT22;23154;52.542;13.362;2023-02-13T17:33:49;6.90;99.90
37268;DHT22;23154;52.542;13.362;2023-02-13T17:36:14;6.90;99.90
37268;DHT22;23154;52.542;13.362;2023-02-13T17:38:40;6.90;99.90
37268;DHT22;23154;52.542;13.362;2023-02-13T17:41:09;6.90;99.90
37268;DHT22;23154;52.542;13.362;2023-02-13T17:43:36;7.00;99.90
37268;DHT22;23154;52.542;13.362;2023-02-13T17:46:02;7.00;99.90
37268;DHT22;23154;52.542;13.362;2023-02-13T17:48:28;7.00;99.90
37268;DHT22;23154;52.542;13.362;2023-02-13T17:50:53;6.90;99.90
37268;DHT22;23154;52.542;13.362;2023-02-13T17:53:22;6.80;99.90
37268;DHT22;23154;52.542;13.362;2023-02-13T17:55:50;6.80;99.90
37268;DHT22;23154;52.542;13.362;2023-02-13T17:58:16;6.80;99.90
37268;DHT22;23154;52.542;13.362;2023-02-13T18:00:42;6.90;99.90
37268;DHT22;23154;52.542;13.362;2023-02-13T18:03:07;6.80;99.90
37268;DHT22;23154;52.542;13.362;2023-02-13T18:05:33;6.80;99.90
37268;DHT22;23154;52.542;13.362;2023-02-13T18:07:59;6.90;99.90
37268;DHT22;23154;52.542;13.362;2023-02-13T18:10:30;6.80;99.90
37268;DHT22;23154;52.542;13.362;2023-02-13T18:12:56;6.90;99.90
37268;DHT22;23154;52.542;13.362;2023-02-13T18:15:38;6.90;99.90